Main page
METAR-TAF:

METAR-TAF

Airports :

Avignon – Provence Airport

Avignon, France

latitude: 43-54-26N, longitude: 004-54-07E, elevation: 38 m

Current weather observation

The report was made 17 minutes ago, at 10:00 UTC
Wind 4 kt from the North/Northwest
Temperature 4°C
Humidity 87%
Pressure 1017 hPa
Visibility: 9000 m

METAR: LFMV 061000Z AUTO 34004KT 9000 NSC 04/02 Q1017 TEMPO 2500 BR

Time: 11:17 (10:17 UTC)

Forecast

The report was made 2 hours and 17 minutes ago, at 08:00 UTC
Forecast valid from 06 at 09 UTC to 07 at 09 UTC
Wind 4 kt from variable directions
Visibility 10 km or more
no clouds below 1500 m and no cumulonimbus
Temporary
from 06 at 09 UTC to 06 at 11 UTC
Visibility: 2500 m
mist
Becoming
from 06 at 21 UTC to 06 at 23 UTC
Wind 10 kt from the North/Northwest
Temporary
from 07 at 03 UTC to 07 at 09 UTC
Wind 15 kt from the North/Northwest

TAF: LFMV 060800Z 0609/0709 VRB04KT CAVOK TEMPO 0609/0611 2500 BR BECMG 0621/0623 34010KT TEMPO 0703/0709 34015KT

Weather observations and forecasts of more than 4000 airports (METAR and TAF reports).

The available stations are represented by yellow and red dots on the map.

Hover mouse over dot to see the name of the station.

Then click to see weather observations and forecasts.

To change the map : click on the green buttons with a black cross to zoom in, on the green button with a dash to zoom out, or on the green arrows for adjacent maps.


METAR-TAF: